sensor_id;sensor_type;location;lat;lon;timestamp;P1;durP1;ratioP1;P2;durP2;ratioP2
80127;SDS011;69440;52.118;5.408;2023-04-29T00:01:34;28.25;;;12.07;;
80127;SDS011;69440;52.118;5.408;2023-04-29T00:04:01;30.42;;;12.82;;
80127;SDS011;69440;52.118;5.408;2023-04-29T00:06:28;25.80;;;12.40;;
80127;SDS011;69440;52.118;5.408;2023-04-29T00:08:55;25.98;;;12.75;;
80127;SDS011;69440;52.118;5.408;2023-04-29T00:11:22;28.83;;;13.57;;
80127;SDS011;69440;52.118;5.408;2023-04-29T00:13:48;28.92;;;12.93;;
80127;SDS011;69440;52.118;5.408;2023-04-29T00:16:15;27.42;;;13.23;;
80127;SDS011;69440;52.118;5.408;2023-04-29T00:18:41;29.67;;;12.50;;
80127;SDS011;69440;52.118;5.408;2023-04-29T00:21:07;33.08;;;13.25;;
80127;SDS011;69440;52.118;5.408;2023-04-29T00:23:34;28.30;;;12.77;;
80127;SDS011;69440;52.118;5.408;2023-04-29T00:26:01;30.85;;;13.23;;
80127;SDS011;69440;52.118;5.408;2023-04-29T00:28:27;27.77;;;13.10;;
80127;SDS011;69440;52.118;5.408;2023-04-29T00:30:54;29.15;;;14.10;;
80127;SDS011;69440;52.118;5.408;2023-04-29T00:33:21;31.92;;;12.98;;
80127;SDS011;69440;52.118;5.408;2023-04-29T00:35:47;31.80;;;13.18;;
80127;SDS011;69440;52.118;5.408;2023-04-29T00:38:14;31.85;;;13.68;;
80127;SDS011;69440;52.118;5.408;2023-04-29T00:40:40;28.38;;;13.02;;
80127;SDS011;69440;52.118;5.408;2023-04-29T00:43:08;35.95;;;13.55;;
80127;SDS011;69440;52.118;5.408;2023-04-29T00:45:35;30.98;;;14.48;;
80127;SDS011;69440;52.118;5.408;2023-04-29T00:48:01;27.55;;;14.55;;
80127;SDS011;69440;52.118;5.408;2023-04-29T00:50:28;28.88;;;13.23;;
80127;SDS011;69440;52.118;5.408;2023-04-29T00:52:54;28.48;;;13.27;;
80127;SDS011;69440;52.118;5.408;2023-04-29T00:55:20;30.70;;;14.02;;
80127;SDS011;69440;52.118;5.408;2023-04-29T00:57:48;23.83;;;12.95;;
80127;SDS011;69440;52.118;5.408;2023-04-29T01:00:17;25.90;;;12.68;;
80127;SDS011;69440;52.118;5.408;2023-04-29T01:02:45;26.25;;;12.63;;
80127;SDS011;69440;52.118;5.408;2023-04-29T01:05:13;26.58;;;12.63;;
80127;SDS011;69440;52.118;5.408;2023-04-29T01:10:43;29.50;;;13.02;;
80127;SDS011;69440;52.118;5.408;2023-04-29T01:13:20;25.85;;;12.05;;
80127;SDS011;69440;52.118;5.408;2023-04-29T01:16:12;26.15;;;11.60;;
80127;SDS011;69440;52.118;5.408;2023-04-29T01:18:56;35.22;;;12.77;;
80127;SDS011;69440;52.118;5.408;2023-04-29T01:21:26;27.38;;;12.68;;
80127;SDS011;69440;52.118;5.408;2023-04-29T01:23:53;22.50;;;11.35;;
80127;SDS011;69440;52.118;5.408;2023-04-29T01:26:23;23.23;;;11.60;;
80127;SDS011;69440;52.118;5.408;2023-04-29T01:28:56;24.73;;;11.80;;
80127;SDS011;69440;52.118;5.408;2023-04-29T01:34:27;25.52;;;12.13;;
80127;SDS011;69440;52.118;5.408;2023-04-29T01:42:46;24.13;;;11.73;;
80127;SDS011;69440;52.118;5.408;2023-04-29T01:45:29;23.40;;;11.73;;
80127;SDS011;69440;52.118;5.408;2023-04-29T01:47:57;22.13;;;11.32;;
80127;SDS011;69440;52.118;5.408;2023-04-29T01:50:25;22.45;;;11.15;;
80127;SDS011;69440;52.118;5.408;2023-04-29T01:52:51;22.35;;;11.23;;
80127;SDS011;69440;52.118;5.408;2023-04-29T01:55:18;23.85;;;12.43;;
80127;SDS011;69440;52.118;5.408;2023-04-29T01:57:44;25.67;;;11.35;;
80127;SDS011;69440;52.118;5.408;2023-04-29T02:00:11;22.23;;;11.68;;
80127;SDS011;69440;52.118;5.408;2023-04-29T02:02:37;26.42;;;12.75;;
80127;SDS011;69440;52.118;5.408;2023-04-29T02:05:04;22.70;;;12.27;;
80127;SDS011;69440;52.118;5.408;2023-04-29T02:07:31;24.27;;;11.65;;
80127;SDS011;69440;52.118;5.408;2023-04-29T02:09:57;22.40;;;11.00;;
80127;SDS011;69440;52.118;5.408;2023-04-29T02:12:23;22.48;;;11.65;;
80127;SDS011;69440;52.118;5.408;2023-04-29T02:14:52;20.90;;;10.65;;
80127;SDS011;69440;52.118;5.408;2023-04-29T02:17:19;20.38;;;10.82;;
80127;SDS011;69440;52.118;5.408;2023-04-29T02:19:45;23.10;;;11.20;;
80127;SDS011;69440;52.118;5.408;2023-04-29T02:22:12;21.08;;;11.63;;
80127;SDS011;69440;52.118;5.408;2023-04-29T02:24:40;19.90;;;10.45;;
80127;SDS011;69440;52.118;5.408;2023-04-29T02:27:06;23.42;;;11.07;;
80127;SDS011;69440;52.118;5.408;2023-04-29T02:29:33;20.60;;;10.25;;
80127;SDS011;69440;52.118;5.408;2023-04-29T02:31:59;21.30;;;10.27;;
80127;SDS011;69440;52.118;5.408;2023-04-29T02:34:26;19.23;;;10.07;;
80127;SDS011;69440;52.118;5.408;2023-04-29T02:36:52;20.80;;;10.82;;
80127;SDS011;69440;52.118;5.408;2023-04-29T02:39:19;19.52;;;9.27;;
80127;SDS011;69440;52.118;5.408;2023-04-29T02:41:45;21.45;;;10.02;;
80127;SDS011;69440;52.118;5.408;2023-04-29T02:44:12;19.88;;;8.65;;
80127;SDS011;69440;52.118;5.408;2023-04-29T02:46:38;22.52;;;10.82;;
80127;SDS011;69440;52.118;5.408;2023-04-29T02:49:06;18.45;;;9.68;;
80127;SDS011;69440;52.118;5.408;2023-04-29T02:51:33;17.13;;;9.07;;
80127;SDS011;69440;52.118;5.408;2023-04-29T02:53:59;17.15;;;9.52;;
80127;SDS011;69440;52.118;5.408;2023-04-29T02:56:25;19.35;;;9.63;;
80127;SDS011;69440;52.118;5.408;2023-04-29T02:58:52;18.48;;;9.70;;
80127;SDS011;69440;52.118;5.408;2023-04-29T03:01:19;20.52;;;10.00;;
80127;SDS011;69440;52.118;5.408;2023-04-29T03:03:45;16.73;;;9.00;;
80127;SDS011;69440;52.118;5.408;2023-04-29T03:06:12;15.68;;;9.25;;
80127;SDS011;69440;52.118;5.408;2023-04-29T03:08:38;17.10;;;9.20;;
80127;SDS011;69440;52.118;5.408;2023-04-29T03:11:05;17.00;;;8.63;;
80127;SDS011;69440;52.118;5.408;2023-04-29T03:13:31;22.02;;;9.68;;
80127;SDS011;69440;52.118;5.408;2023-04-29T03:15:58;15.15;;;9.02;;
80127;SDS011;69440;52.118;5.408;2023-04-29T03:18:25;17.92;;;8.70;;
80127;SDS011;69440;52.118;5.408;2023-04-29T03:20:52;22.08;;;9.70;;
80127;SDS011;69440;52.118;5.408;2023-04-29T03:23:18;21.63;;;10.18;;
80127;SDS011;69440;52.118;5.408;2023-04-29T03:25:45;16.83;;;9.27;;
80127;SDS011;69440;52.118;5.408;2023-04-29T03:28:11;16.70;;;8.98;;
80127;SDS011;69440;52.118;5.408;2023-04-29T03:30:38;22.48;;;9.18;;
80127;SDS011;69440;52.118;5.408;2023-04-29T03:33:04;15.93;;;8.55;;
80127;SDS011;69440;52.118;5.408;2023-04-29T03:35:30;19.80;;;9.82;;
80127;SDS011;69440;52.118;5.408;2023-04-29T03:37:57;16.88;;;9.98;;
80127;SDS011;69440;52.118;5.408;2023-04-29T03:40:23;16.75;;;9.40;;
80127;SDS011;69440;52.118;5.408;2023-04-29T03:42:50;17.20;;;9.45;;
80127;SDS011;69440;52.118;5.408;2023-04-29T03:45:16;19.70;;;9.88;;
80127;SDS011;69440;52.118;5.408;2023-04-29T03:47:43;16.08;;;8.75;;
80127;SDS011;69440;52.118;5.408;2023-04-29T03:50:09;20.60;;;10.50;;
80127;SDS011;69440;52.118;5.408;2023-04-29T03:52:36;16.73;;;9.77;;
80127;SDS011;69440;52.118;5.408;2023-04-29T03:55:03;16.83;;;9.75;;
80127;SDS011;69440;52.118;5.408;2023-04-29T03:57:30;17.05;;;9.70;;
80127;SDS011;69440;52.118;5.408;2023-04-29T03:59:56;18.95;;;9.82;;
80127;SDS011;69440;52.118;5.408;2023-04-29T04:02:23;20.58;;;10.73;;
80127;SDS011;69440;52.118;5.408;2023-04-29T04:04:50;19.05;;;10.18;;
80127;SDS011;69440;52.118;5.408;2023-04-29T04:07:16;19.63;;;10.32;;
80127;SDS011;69440;52.118;5.408;2023-04-29T04:09:43;20.98;;;10.30;;
80127;SDS011;69440;52.118;5.408;2023-04-29T04:12:09;21.35;;;10.77;;
80127;SDS011;69440;52.118;5.408;2023-04-29T04:14:35;17.83;;;10.18;;
80127;SDS011;69440;52.118;5.408;2023-04-29T04:17:02;16.63;;;9.55;;
80127;SDS011;69440;52.118;5.408;2023-04-29T04:19:29;17.95;;;9.95;;
80127;SDS011;69440;52.118;5.408;2023-04-29T04:21:56;20.17;;;10.85;;
80127;SDS011;69440;52.118;5.408;2023-04-29T04:24:22;15.95;;;10.40;;
80127;SDS011;69440;52.118;5.408;2023-04-29T04:26:48;16.77;;;8.40;;
80127;SDS011;69440;52.118;5.408;2023-04-29T04:29:15;15.52;;;9.15;;
80127;SDS011;69440;52.118;5.408;2023-04-29T04:31:41;13.68;;;8.50;;
80127;SDS011;69440;52.118;5.408;2023-04-29T04:34:11;14.15;;;9.13;;
80127;SDS011;69440;52.118;5.408;2023-04-29T04:36:38;15.15;;;9.32;;
80127;SDS011;69440;52.118;5.408;2023-04-29T04:39:04;16.42;;;9.23;;
80127;SDS011;69440;52.118;5.408;2023-04-29T04:41:31;12.82;;;7.78;;
80127;SDS011;69440;52.118;5.408;2023-04-29T04:43:57;14.88;;;8.40;;
80127;SDS011;69440;52.118;5.408;2023-04-29T04:46:24;13.23;;;7.47;;
80127;SDS011;69440;52.118;5.408;2023-04-29T04:48:50;15.38;;;9.13;;
80127;SDS011;69440;52.118;5.408;2023-04-29T04:51:17;16.65;;;9.73;;
80127;SDS011;69440;52.118;5.408;2023-04-29T04:53:43;12.60;;;8.55;;
80127;SDS011;69440;52.118;5.408;2023-04-29T04:56:10;13.57;;;7.82;;
80127;SDS011;69440;52.118;5.408;2023-04-29T04:58:36;16.60;;;7.75;;
80127;SDS011;69440;52.118;5.408;2023-04-29T05:01:02;15.48;;;9.15;;
80127;SDS011;69440;52.118;5.408;2023-04-29T05:03:29;15.90;;;8.32;;
80127;SDS011;69440;52.118;5.408;2023-04-29T05:05:56;15.18;;;8.40;;
80127;SDS011;69440;52.118;5.408;2023-04-29T05:08:24;15.32;;;9.50;;
80127;SDS011;69440;52.118;5.408;2023-04-29T05:10:51;13.30;;;8.07;;
80127;SDS011;69440;52.118;5.408;2023-04-29T05:13:19;13.23;;;8.27;;
80127;SDS011;69440;52.118;5.408;2023-04-29T05:15:46;15.90;;;8.90;;
80127;SDS011;69440;52.118;5.408;2023-04-29T05:18:12;15.45;;;8.52;;
80127;SDS011;69440;52.118;5.408;2023-04-29T05:20:39;13.20;;;7.72;;
80127;SDS011;69440;52.118;5.408;2023-04-29T05:23:05;20.42;;;8.48;;
80127;SDS011;69440;52.118;5.408;2023-04-29T05:25:32;13.85;;;8.57;;
80127;SDS011;69440;52.118;5.408;2023-04-29T05:27:58;14.45;;;8.30;;
80127;SDS011;69440;52.118;5.408;2023-04-29T05:30:25;14.65;;;8.32;;
80127;SDS011;69440;52.118;5.408;2023-04-29T05:32:52;14.20;;;7.93;;
80127;SDS011;69440;52.118;5.408;2023-04-29T05:35:18;12.20;;;7.50;;
80127;SDS011;69440;52.118;5.408;2023-04-29T05:37:45;13.70;;;7.47;;
80127;SDS011;69440;52.118;5.408;2023-04-29T05:40:11;13.70;;;8.25;;
80127;SDS011;69440;52.118;5.408;2023-04-29T05:42:38;13.75;;;7.65;;
80127;SDS011;69440;52.118;5.408;2023-04-29T05:45:04;13.68;;;8.10;;
80127;SDS011;69440;52.118;5.408;2023-04-29T05:47:31;14.80;;;8.35;;
80127;SDS011;69440;52.118;5.408;2023-04-29T05:49:58;16.73;;;8.07;;
80127;SDS011;69440;52.118;5.408;2023-04-29T05:52:24;17.10;;;7.97;;
80127;SDS011;69440;52.118;5.408;2023-04-29T05:54:51;12.90;;;8.43;;
80127;SDS011;69440;52.118;5.408;2023-04-29T05:57:17;16.70;;;8.27;;
80127;SDS011;69440;52.118;5.408;2023-04-29T05:59:43;11.25;;;7.03;;
80127;SDS011;69440;52.118;5.408;2023-04-29T06:02:10;14.20;;;8.98;;
80127;SDS011;69440;52.118;5.408;2023-04-29T06:04:37;17.85;;;9.02;;
80127;SDS011;69440;52.118;5.408;2023-04-29T06:07:06;15.05;;;8.80;;
80127;SDS011;69440;52.118;5.408;2023-04-29T06:09:34;15.60;;;8.90;;
80127;SDS011;69440;52.118;5.408;2023-04-29T06:12:01;16.38;;;8.90;;
80127;SDS011;69440;52.118;5.408;2023-04-29T06:14:28;17.48;;;8.98;;
80127;SDS011;69440;52.118;5.408;2023-04-29T06:16:55;22.30;;;9.40;;
80127;SDS011;69440;52.118;5.408;2023-04-29T06:19:21;15.02;;;7.97;;
80127;SDS011;69440;52.118;5.408;2023-04-29T06:21:48;16.98;;;8.90;;
80127;SDS011;69440;52.118;5.408;2023-04-29T06:24:14;15.45;;;8.68;;
80127;SDS011;69440;52.118;5.408;2023-04-29T06:26:41;15.82;;;8.60;;
80127;SDS011;69440;52.118;5.408;2023-04-29T06:29:07;22.45;;;9.70;;
80127;SDS011;69440;52.118;5.408;2023-04-29T06:31:33;18.15;;;9.27;;
80127;SDS011;69440;52.118;5.408;2023-04-29T06:34:00;15.40;;;8.43;;
80127;SDS011;69440;52.118;5.408;2023-04-29T06:36:26;17.98;;;9.32;;
80127;SDS011;69440;52.118;5.408;2023-04-29T06:38:53;16.35;;;9.00;;
80127;SDS011;69440;52.118;5.408;2023-04-29T06:41:20;15.18;;;8.75;;
80127;SDS011;69440;52.118;5.408;2023-04-29T06:43:46;13.32;;;7.75;;
80127;SDS011;69440;52.118;5.408;2023-04-29T06:46:14;15.07;;;8.50;;
80127;SDS011;69440;52.118;5.408;2023-04-29T06:48:40;17.98;;;9.48;;
80127;SDS011;69440;52.118;5.408;2023-04-29T06:51:07;14.93;;;8.70;;
80127;SDS011;69440;52.118;5.408;2023-04-29T06:53:33;16.88;;;7.97;;
80127;SDS011;69440;52.118;5.408;2023-04-29T06:55:59;15.45;;;7.07;;
80127;SDS011;69440;52.118;5.408;2023-04-29T06:58:26;15.02;;;7.82;;
80127;SDS011;69440;52.118;5.408;2023-04-29T07:00:52;19.65;;;8.93;;
80127;SDS011;69440;52.118;5.408;2023-04-29T07:03:19;18.75;;;8.02;;
80127;SDS011;69440;52.118;5.408;2023-04-29T07:05:45;15.73;;;8.02;;
80127;SDS011;69440;52.118;5.408;2023-04-29T07:08:13;17.38;;;7.90;;
80127;SDS011;69440;52.118;5.408;2023-04-29T07:10:39;13.77;;;7.35;;
80127;SDS011;69440;52.118;5.408;2023-04-29T07:13:06;15.45;;;7.43;;
80127;SDS011;69440;52.118;5.408;2023-04-29T07:15:33;16.25;;;7.28;;
80127;SDS011;69440;52.118;5.408;2023-04-29T07:18:04;18.38;;;7.72;;
80127;SDS011;69440;52.118;5.408;2023-04-29T07:20:31;12.32;;;7.55;;
80127;SDS011;69440;52.118;5.408;2023-04-29T07:22:58;15.63;;;7.22;;
80127;SDS011;69440;52.118;5.408;2023-04-29T07:25:27;16.13;;;8.02;;
80127;SDS011;69440;52.118;5.408;2023-04-29T07:27:56;18.00;;;7.40;;
80127;SDS011;69440;52.118;5.408;2023-04-29T07:30:22;15.60;;;7.75;;
80127;SDS011;69440;52.118;5.408;2023-04-29T07:32:50;16.02;;;7.18;;
80127;SDS011;69440;52.118;5.408;2023-04-29T07:35:16;15.00;;;6.55;;
80127;SDS011;69440;52.118;5.408;2023-04-29T07:37:43;16.25;;;7.60;;
80127;SDS011;69440;52.118;5.408;2023-04-29T07:40:11;13.45;;;6.28;;
80127;SDS011;69440;52.118;5.408;2023-04-29T07:42:38;12.82;;;7.10;;
80127;SDS011;69440;52.118;5.408;2023-04-29T07:45:05;14.27;;;6.78;;
80127;SDS011;69440;52.118;5.408;2023-04-29T07:47:32;11.43;;;5.90;;
80127;SDS011;69440;52.118;5.408;2023-04-29T07:49:58;16.33;;;7.53;;
80127;SDS011;69440;52.118;5.408;2023-04-29T07:52:25;10.98;;;5.93;;
80127;SDS011;69440;52.118;5.408;2023-04-29T07:54:51;12.65;;;5.85;;
80127;SDS011;69440;52.118;5.408;2023-04-29T07:57:20;11.63;;;6.00;;
80127;SDS011;69440;52.118;5.408;2023-04-29T07:59:51;11.90;;;5.93;;
80127;SDS011;69440;52.118;5.408;2023-04-29T08:02:18;11.57;;;6.47;;
80127;SDS011;69440;52.118;5.408;2023-04-29T08:04:45;12.25;;;6.05;;
80127;SDS011;69440;52.118;5.408;2023-04-29T08:07:12;12.13;;;5.82;;
80127;SDS011;69440;52.118;5.408;2023-04-29T08:09:38;12.80;;;6.15;;
80127;SDS011;69440;52.118;5.408;2023-04-29T08:12:05;11.55;;;5.50;;
80127;SDS011;69440;52.118;5.408;2023-04-29T08:14:31;10.73;;;5.82;;
80127;SDS011;69440;52.118;5.408;2023-04-29T08:16:58;10.18;;;5.80;;
80127;SDS011;69440;52.118;5.408;2023-04-29T08:19:24;9.23;;;5.05;;
80127;SDS011;69440;52.118;5.408;2023-04-29T08:21:50;11.60;;;5.88;;
80127;SDS011;69440;52.118;5.408;2023-04-29T08:24:17;9.40;;;5.13;;
80127;SDS011;69440;52.118;5.408;2023-04-29T08:26:45;9.27;;;4.47;;
80127;SDS011;69440;52.118;5.408;2023-04-29T08:29:12;12.07;;;4.53;;
80127;SDS011;69440;52.118;5.408;2023-04-29T08:31:39;11.95;;;5.05;;
80127;SDS011;69440;52.118;5.408;2023-04-29T08:34:06;8.63;;;4.65;;
80127;SDS011;69440;52.118;5.408;2023-04-29T08:36:32;8.55;;;5.72;;
80127;SDS011;69440;52.118;5.408;2023-04-29T08:38:58;9.65;;;5.68;;
80127;SDS011;69440;52.118;5.408;2023-04-29T08:41:25;9.00;;;5.38;;
80127;SDS011;69440;52.118;5.408;2023-04-29T08:43:51;7.10;;;5.10;;
80127;SDS011;69440;52.118;5.408;2023-04-29T08:46:18;10.35;;;5.35;;
80127;SDS011;69440;52.118;5.408;2023-04-29T08:48:46;10.20;;;4.32;;
80127;SDS011;69440;52.118;5.408;2023-04-29T08:51:13;8.32;;;5.20;;
80127;SDS011;69440;52.118;5.408;2023-04-29T08:53:40;7.25;;;3.90;;
80127;SDS011;69440;52.118;5.408;2023-04-29T08:56:14;8.98;;;4.45;;
80127;SDS011;69440;52.118;5.408;2023-04-29T08:58:45;8.70;;;4.97;;
80127;SDS011;69440;52.118;5.408;2023-04-29T09:01:13;9.05;;;4.28;;
80127;SDS011;69440;52.118;5.408;2023-04-29T09:03:46;9.25;;;4.22;;
80127;SDS011;69440;52.118;5.408;2023-04-29T09:06:19;8.10;;;4.20;;
80127;SDS011;69440;52.118;5.408;2023-04-29T09:08:46;9.27;;;4.82;;
80127;SDS011;69440;52.118;5.408;2023-04-29T09:11:13;8.48;;;4.97;;
80127;SDS011;69440;52.118;5.408;2023-04-29T09:13:40;8.68;;;5.10;;
80127;SDS011;69440;52.118;5.408;2023-04-29T09:16:12;7.97;;;4.72;;
80127;SDS011;69440;52.118;5.408;2023-04-29T09:18:43;11.60;;;5.18;;
80127;SDS011;69440;52.118;5.408;2023-04-29T09:23:48;8.05;;;4.38;;
80127;SDS011;69440;52.118;5.408;2023-04-29T09:26:17;11.82;;;5.45;;
80127;SDS011;69440;52.118;5.408;2023-04-29T09:28:43;9.95;;;5.03;;
80127;SDS011;69440;52.118;5.408;2023-04-29T09:31:10;9.15;;;4.53;;
80127;SDS011;69440;52.118;5.408;2023-04-29T09:39:24;7.03;;;3.60;;
80127;SDS011;69440;52.118;5.408;2023-04-29T09:44:18;9.07;;;4.85;;
80127;SDS011;69440;52.118;5.408;2023-04-29T09:46:58;11.35;;;4.13;;
80127;SDS011;69440;52.118;5.408;2023-04-29T09:49:28;8.90;;;5.15;;
80127;SDS011;69440;52.118;5.408;2023-04-29T09:51:56;7.10;;;4.10;;
80127;SDS011;69440;52.118;5.408;2023-04-29T09:54:28;7.13;;;3.50;;
80127;SDS011;69440;52.118;5.408;2023-04-29T09:56:59;6.65;;;3.83;;
80127;SDS011;69440;52.118;5.408;2023-04-29T09:59:27;5.63;;;3.60;;
80127;SDS011;69440;52.118;5.408;2023-04-29T10:01:54;6.30;;;4.10;;
80127;SDS011;69440;52.118;5.408;2023-04-29T10:04:23;9.10;;;4.00;;
80127;SDS011;69440;52.118;5.408;2023-04-29T10:06:52;5.70;;;3.70;;
80127;SDS011;69440;52.118;5.408;2023-04-29T10:09:20;6.95;;;3.88;;
80127;SDS011;69440;52.118;5.408;2023-04-29T10:11:49;10.23;;;4.43;;
80127;SDS011;69440;52.118;5.408;2023-04-29T10:14:17;10.65;;;4.60;;
80127;SDS011;69440;52.118;5.408;2023-04-29T10:19:24;8.57;;;4.03;;
80127;SDS011;69440;52.118;5.408;2023-04-29T10:21:53;6.95;;;4.05;;
80127;SDS011;69440;52.118;5.408;2023-04-29T10:24:23;9.23;;;4.18;;
80127;SDS011;69440;52.118;5.408;2023-04-29T10:26:51;7.68;;;4.22;;
80127;SDS011;69440;52.118;5.408;2023-04-29T10:29:21;6.53;;;4.22;;
80127;SDS011;69440;52.118;5.408;2023-04-29T10:31:48;8.60;;;3.78;;
80127;SDS011;69440;52.118;5.408;2023-04-29T10:34:16;6.05;;;3.75;;
80127;SDS011;69440;52.118;5.408;2023-04-29T10:36:43;8.57;;;4.50;;
80127;SDS011;69440;52.118;5.408;2023-04-29T10:39:13;8.18;;;3.90;;
80127;SDS011;69440;52.118;5.408;2023-04-29T10:41:47;7.88;;;3.72;;
80127;SDS011;69440;52.118;5.408;2023-04-29T10:44:16;6.10;;;4.13;;
80127;SDS011;69440;52.118;5.408;2023-04-29T10:46:42;5.13;;;4.00;;
80127;SDS011;69440;52.118;5.408;2023-04-29T10:49:09;6.57;;;3.58;;
80127;SDS011;69440;52.118;5.408;2023-04-29T10:54:13;6.32;;;2.95;;
80127;SDS011;69440;52.118;5.408;2023-04-29T10:56:50;5.45;;;3.38;;
80127;SDS011;69440;52.118;5.408;2023-04-29T11:01:53;7.68;;;3.55;;
80127;SDS011;69440;52.118;5.408;2023-04-29T11:04:20;5.72;;;3.65;;
80127;SDS011;69440;52.118;5.408;2023-04-29T11:06:50;7.40;;;3.47;;
80127;SDS011;69440;52.118;5.408;2023-04-29T11:09:23;6.15;;;3.80;;
80127;SDS011;69440;52.118;5.408;2023-04-29T11:14:33;5.93;;;3.65;;
80127;SDS011;69440;52.118;5.408;2023-04-29T11:17:10;7.65;;;4.03;;
80127;SDS011;69440;52.118;5.408;2023-04-29T11:19:40;5.63;;;3.40;;
80127;SDS011;69440;52.118;5.408;2023-04-29T11:22:11;6.00;;;3.13;;
80127;SDS011;69440;52.118;5.408;2023-04-29T11:27:21;4.85;;;3.83;;
80127;SDS011;69440;52.118;5.408;2023-04-29T11:29:56;6.80;;;3.08;;
80127;SDS011;69440;52.118;5.408;2023-04-29T11:32:25;6.38;;;2.88;;
80127;SDS011;69440;52.118;5.408;2023-04-29T11:37:39;6.28;;;2.70;;
80127;SDS011;69440;52.118;5.408;2023-04-29T11:40:06;5.68;;;3.03;;
80127;SDS011;69440;52.118;5.408;2023-04-29T11:42:34;5.47;;;3.58;;
80127;SDS011;69440;52.118;5.408;2023-04-29T11:45:01;8.65;;;4.38;;
80127;SDS011;69440;52.118;5.408;2023-04-29T11:47:29;6.15;;;3.78;;
80127;SDS011;69440;52.118;5.408;2023-04-29T11:50:05;5.43;;;3.53;;
80127;SDS011;69440;52.118;5.408;2023-04-29T11:52:34;6.38;;;3.72;;
80127;SDS011;69440;52.118;5.408;2023-04-29T11:55:02;7.20;;;4.30;;
80127;SDS011;69440;52.118;5.408;2023-04-29T11:57:29;6.22;;;3.90;;
80127;SDS011;69440;52.118;5.408;2023-04-29T11:59:56;5.93;;;4.10;;
80127;SDS011;69440;52.118;5.408;2023-04-29T12:02:29;5.32;;;4.03;;
80127;SDS011;69440;52.118;5.408;2023-04-29T12:04:57;6.78;;;4.50;;
80127;SDS011;69440;52.118;5.408;2023-04-29T12:07:31;6.22;;;4.20;;
80127;SDS011;69440;52.118;5.408;2023-04-29T12:09:59;6.50;;;4.13;;
80127;SDS011;69440;52.118;5.408;2023-04-29T12:12:26;6.78;;;3.25;;
80127;SDS011;69440;52.118;5.408;2023-04-29T12:14:53;6.78;;;4.05;;
80127;SDS011;69440;52.118;5.408;2023-04-29T12:17:20;7.85;;;4.00;;
80127;SDS011;69440;52.118;5.408;2023-04-29T12:19:47;6.50;;;4.03;;
80127;SDS011;69440;52.118;5.408;2023-04-29T12:22:14;6.00;;;4.13;;
80127;SDS011;69440;52.118;5.408;2023-04-29T12:24:40;6.20;;;3.97;;
80127;SDS011;69440;52.118;5.408;2023-04-29T12:27:07;5.57;;;3.88;;
80127;SDS011;69440;52.118;5.408;2023-04-29T12:29:38;7.05;;;4.00;;
80127;SDS011;69440;52.118;5.408;2023-04-29T12:32:06;9.70;;;4.70;;
80127;SDS011;69440;52.118;5.408;2023-04-29T12:34:33;5.47;;;3.50;;
80127;SDS011;69440;52.118;5.408;2023-04-29T12:36:59;6.03;;;4.25;;
80127;SDS011;69440;52.118;5.408;2023-04-29T12:39:27;8.32;;;4.03;;
80127;SDS011;69440;52.118;5.408;2023-04-29T12:41:58;9.27;;;4.30;;
80127;SDS011;69440;52.118;5.408;2023-04-29T12:44:25;7.38;;;3.95;;
80127;SDS011;69440;52.118;5.408;2023-04-29T12:46:51;7.15;;;4.40;;
80127;SDS011;69440;52.118;5.408;2023-04-29T12:49:19;6.15;;;3.92;;
80127;SDS011;69440;52.118;5.408;2023-04-29T12:51:49;6.45;;;4.15;;
80127;SDS011;69440;52.118;5.408;2023-04-29T12:54:15;6.10;;;4.55;;
80127;SDS011;69440;52.118;5.408;2023-04-29T12:56:42;6.22;;;4.57;;
80127;SDS011;69440;52.118;5.408;2023-04-29T12:59:08;5.80;;;3.80;;
80127;SDS011;69440;52.118;5.408;2023-04-29T13:01:36;5.82;;;4.25;;
80127;SDS011;69440;52.118;5.408;2023-04-29T13:04:04;6.25;;;3.97;;
80127;SDS011;69440;52.118;5.408;2023-04-29T13:06:34;6.38;;;3.97;;
80127;SDS011;69440;52.118;5.408;2023-04-29T13:09:07;5.70;;;3.80;;
80127;SDS011;69440;52.118;5.408;2023-04-29T13:11:43;6.60;;;4.15;;
80127;SDS011;69440;52.118;5.408;2023-04-29T13:14:09;7.78;;;4.03;;
80127;SDS011;69440;52.118;5.408;2023-04-29T13:16:36;7.25;;;3.83;;
80127;SDS011;69440;52.118;5.408;2023-04-29T13:19:03;7.13;;;4.00;;
80127;SDS011;69440;52.118;5.408;2023-04-29T13:21:49;8.45;;;4.10;;
80127;SDS011;69440;52.118;5.408;2023-04-29T13:24:16;6.78;;;3.95;;
80127;SDS011;69440;52.118;5.408;2023-04-29T13:26:44;6.32;;;4.20;;
80127;SDS011;69440;52.118;5.408;2023-04-29T13:29:11;6.53;;;4.20;;
80127;SDS011;69440;52.118;5.408;2023-04-29T13:31:37;6.20;;;4.50;;
80127;SDS011;69440;52.118;5.408;2023-04-29T13:34:04;6.32;;;3.35;;
80127;SDS011;69440;52.118;5.408;2023-04-29T13:36:30;5.82;;;3.70;;
80127;SDS011;69440;52.118;5.408;2023-04-29T13:38:56;6.03;;;4.32;;
80127;SDS011;69440;52.118;5.408;2023-04-29T13:41:23;6.50;;;4.25;;
80127;SDS011;69440;52.118;5.408;2023-04-29T13:43:51;6.50;;;4.07;;
80127;SDS011;69440;52.118;5.408;2023-04-29T13:46:23;6.75;;;4.13;;
80127;SDS011;69440;52.118;5.408;2023-04-29T13:48:50;5.82;;;4.10;;
80127;SDS011;69440;52.118;5.408;2023-04-29T13:51:19;7.18;;;4.40;;
80127;SDS011;69440;52.118;5.408;2023-04-29T13:53:49;5.85;;;3.85;;
80127;SDS011;69440;52.118;5.408;2023-04-29T13:56:18;6.82;;;4.00;;
80127;SDS011;69440;52.118;5.408;2023-04-29T13:58:47;9.95;;;4.63;;
80127;SDS011;69440;52.118;5.408;2023-04-29T14:01:18;12.38;;;6.00;;
80127;SDS011;69440;52.118;5.408;2023-04-29T14:04:04;16.20;;;8.75;;
80127;SDS011;69440;52.118;5.408;2023-04-29T14:06:31;6.38;;;3.90;;
80127;SDS011;69440;52.118;5.408;2023-04-29T14:08:57;8.93;;;5.05;;
80127;SDS011;69440;52.118;5.408;2023-04-29T14:11:26;6.45;;;3.80;;
80127;SDS011;69440;52.118;5.408;2023-04-29T14:13:53;8.32;;;3.70;;
80127;SDS011;69440;52.118;5.408;2023-04-29T14:16:20;6.65;;;3.83;;
80127;SDS011;69440;52.118;5.408;2023-04-29T14:18:46;6.57;;;4.10;;
80127;SDS011;69440;52.118;5.408;2023-04-29T14:21:13;6.38;;;3.53;;
80127;SDS011;69440;52.118;5.408;2023-04-29T14:23:39;6.85;;;4.28;;
80127;SDS011;69440;52.118;5.408;2023-04-29T14:26:06;6.57;;;4.30;;
80127;SDS011;69440;52.118;5.408;2023-04-29T14:28:52;6.43;;;3.83;;
80127;SDS011;69440;52.118;5.408;2023-04-29T14:31:23;8.13;;;3.70;;
80127;SDS011;69440;52.118;5.408;2023-04-29T14:33:55;7.30;;;3.70;;
80127;SDS011;69440;52.118;5.408;2023-04-29T14:36:22;5.30;;;3.90;;
80127;SDS011;69440;52.118;5.408;2023-04-29T14:38:49;4.97;;;4.18;;
80127;SDS011;69440;52.118;5.408;2023-04-29T14:41:16;7.75;;;4.30;;
80127;SDS011;69440;52.118;5.408;2023-04-29T14:43:42;6.40;;;3.70;;
80127;SDS011;69440;52.118;5.408;2023-04-29T14:46:09;7.75;;;4.38;;
80127;SDS011;69440;52.118;5.408;2023-04-29T14:48:36;6.78;;;3.60;;
80127;SDS011;69440;52.118;5.408;2023-04-29T14:51:02;5.32;;;3.47;;
80127;SDS011;69440;52.118;5.408;2023-04-29T14:53:29;6.78;;;3.78;;
80127;SDS011;69440;52.118;5.408;2023-04-29T14:55:55;5.15;;;3.30;;
80127;SDS011;69440;52.118;5.408;2023-04-29T14:58:22;5.20;;;3.10;;
80127;SDS011;69440;52.118;5.408;2023-04-29T15:00:49;6.57;;;3.38;;
80127;SDS011;69440;52.118;5.408;2023-04-29T15:03:16;6.00;;;3.47;;
80127;SDS011;69440;52.118;5.408;2023-04-29T15:05:48;4.95;;;3.05;;
80127;SDS011;69440;52.118;5.408;2023-04-29T15:08:17;5.70;;;3.53;;
80127;SDS011;69440;52.118;5.408;2023-04-29T15:10:45;4.97;;;3.10;;
80127;SDS011;69440;52.118;5.408;2023-04-29T15:13:12;4.85;;;2.55;;
80127;SDS011;69440;52.118;5.408;2023-04-29T15:15:39;5.78;;;2.70;;
80127;SDS011;69440;52.118;5.408;2023-04-29T15:18:06;6.63;;;2.97;;
80127;SDS011;69440;52.118;5.408;2023-04-29T15:20:34;5.65;;;2.80;;